DIRECCIÓN GENERAL DE AERONÁUTICA CIVIL
DIRECCIÓN METEOROLÓGICA DE CHILE
INFORMACIÓN METAR Y TAF

FIR PUERTO MONTT

Estación: SCQP
METAR SCQP 310000Z 30003KT 9999 SCT005 OVC020 13/12 Q1019=

TAF SCQP 302230Z 3100/3124 VRB02KT 9999 SCT017 TN04/3110Z TX13/3118Z TEMPO 3100/3104 3000 SHRA OVC008 TEMPO 3110/3114 3000 BR BECMG 3114/3116 22010KT CAVOK=

Estación: SCVD
METAR SCVD 310000Z AUTO 31002KT 9999 BKN017 BKN021 OVC024 12/12 Q1018=

TAF SCVD 301630Z 3018/3106 31008KT 6000 -RA BKN025 TX14/3018Z TN10/3106Z BECMG 3102/3104 16010KT 9999 NSW SCT030=

Estación: SCJO
METAR SCJO 302200Z 16007KT 140V230 9999 SCT010 BKN025 09/09 Q1017=

TAF SCJO 301630Z 3018/3106 32008KT 6000 RA BKN020 TX15/3018Z TN10/3023Z=

Estación: SCTE
METAR SCTE 310000Z VRB03KT CAVOK 05/05 Q1020 NOSIG=

TAF SCTE 302230Z 3100/3124 16005KT 9999 SCT040 TN04/3111Z TX11/3118Z BECMG 3103/3105 VRB02KT CAVOK TEMPO 3109/3113 3000 BR BECMG 3116/3118 16010KT=

Estación: SCPQ
METAR SCPQ 310000Z AUTO 19005KT 9999 BKN023 BKN035 07/06 Q1020=

TAF SCPQ 301630Z 3018/3106 30010KT 9999 BKN020 TX09/3018Z TN05/3106Z TEMPO 3018/3021 7000 -SHRA BECMG 3021/3023 SCT030=

Estación: SCON
METAR SCON 310000Z AUTO 26003KT 210V300 CAVOK 07/04 Q1021=

TAF SCON NIL=

Estación: SCTN
METAR SCTN 310000Z AUTO 16005KT 120V210 9999 FEW026 08/04 Q1021=

TAF SCTN 301630Z 3018/3106 VRB02KT 9999 SCT030 TX11/3018Z TN07/3106Z BECMG 3120/3122 CAVOK=

Estación: SCFT
METAR SCFT 310000Z AUTO VRB02KT 9000 04/02 Q1019=

NIL=

Estación: SCAP
METAR SCAP 310000Z AUTO VRB02KT //// // NSC 04/02 Q1025=

NIL=

Estación: SCMK
METAR SCMK 291600Z 29012KT 9999 FEW010 11/04 Q1007=

TAF SCMK 301630Z 3018/3106 24010KT 9999 SCT020 TX09/3018Z TN07/3106Z=

Estación: SCAS
METAR SCAS 281900Z 24007KT 7000 -RA SCT023 OVC033 07/07 Q0993=

NIL=

Estación: SCCY
METAR SCCY 310000Z 21002KT 9999 SCT030 04/M01 Q1017=

TAF SCCY 301630Z 3018/3106 25010KT 9999 BKN040 TX06/3018Z TN02/3023Z=

Estación: SCBA
METAR SCBA 310000Z AUTO 28008KT CAVOK 02/M02 Q1016=

TAF SCBA 302230Z 3100/3124 30017KT CAVOK TNM04/3110Z TX06/3118Z BECMG 3106/3108 VRB02KT=

Estación: SCCC
METAR SCCC 281900Z 27017G27KT 9999 SCT030 BKN080 11/M01 Q0989=

NIL=

Estación: SCHR
METAR SCHR 281900Z 22006KT 9999 BKN040 SCT100 10/02 Q0987=

TAF SCHR 281019Z 2812/2900 35005KT 9000 SCT033 BKN046 TX10/2818Z TN03/2900Z PROB30 TEMPO 2812/2814 VRB03KT 1500 BRDZ FEW015 BKN024 BECMG 2817/2819 30005KT 9999 FEW017 BKN033 BECMG 2820/2822 28005KT SCT038=


Volver